x

N01 - Northeast Channel (44024) Wave Buoy

4:04am - Fri 3rd Jul 2015 All times are ADT. -3 hours from GMT.

  • Sig Wave height 5.9ft
  • Peak Period 8s
  • Wind
    2mph, 4mph gusts
  • Sea Temp 53°f
  • Air Temp 55°f
  • Sea Pressure 1010.8mb
  • N01 - Northeast Channel
  • N01 - Northeast Channel

More Historic Weather Station data

Upgrade to MSW Pro to gain access to the past 30 days of data for over 8000 Wavebouys and Weather Stations around the globe.

Join Pro

Comparision Forecast

View Surf forecast
   
Fri 07/03 4:04am 6ft 8s 2 4 mph 1010.8mb 53f 55f
3:04am 5.5ft 8s 4 7 mph 1010.7mb 52f 55f
2:04am 5.5ft 8s 7
mph
1011.7mb 53f 55f
1:04am 6ft 8s 9 11 mph 1011.8mb 53f 55f
12:04am 5.5ft 11s 4 7 mph 1011.7mb 54f 55f
Thu 07/02 11:04pm 6ft 11s 7 9 mph 1012.6mb 53f 55f
10:04pm 7ft 8s 2 4 mph 1012.6mb 54f 55f
7:04pm 5ft 11s 4 7 mph 1012.4mb 51f 55f
6:04pm 5.5ft 11s 4 7 mph 1012.6mb 52f 55f
5:04pm 7ft 11s 7 9 mph 1012.6mb 55f 55f
4:04pm 5.5ft 8s 9
mph
1012.2mb 52f 55f
3:04pm 6ft 8s 9 11 mph 1012.3mb 53f 55f
2:04pm 6.5ft 8s 9 11 mph 1012.1mb 52f 55f
1:04pm 7ft 8s 9 11 mph 1012mb 53f 55f
12:04pm 8ft 8s 9 11 mph 1011.8mb 52f 55f
11:04am 6ft 8s 7 9 mph 1011.5mb 53f 54f
10:04am 8.5ft 8s 9 11 mph 1011mb 53f 55f
9:04am 7ft 8s 9 11 mph 1011mb 53f 54f
8:04am 7ft 8s 11 13 mph 1010.5mb 53f 55f
7:04am 7ft 8s 9 11 mph 1010mb 53f 54f
6:04am 7ft 11s 11 13 mph 1009.7mb 50f 53f
5:04am 7ft 11s 11
mph
1009.8mb 50f 53f
4:04am 8ft 11s 13 16 mph 1009.6mb 51f 55f
3:04am 6.5ft 11s 13 16 mph 1010mb 51f 56f
2:04am 6.5ft 11s 16 18 mph 1010.1mb 52f 57f
1:04am 6ft 8s 16 18 mph 1010mb 51f 57f
12:04am 5.5ft 8s 16 18 mph 1010mb 51f 56f
Wed 07/01 11:04pm 5ft 8s 16 18 mph 1010.4mb 52f 57f
10:04pm 6ft 8s 11 13 mph 1010.1mb 52f 56f
9:04pm 6.5ft 8s 9 11 mph 1009.9mb 52f 55f
7:04pm 5ft 8s 2 4 mph 1010.6mb 51f 58f
6:04pm 5ft 8s 20 25 mph 1011.6mb 50f 58f
5:04pm 4ft 8s 7
mph
1010.7mb 51f 54f
4:04pm 4.5ft 8s 9
mph
1011.4mb 53f 55f
3:04pm 3.5ft 8s 7
mph
1011.2mb 53f 57f
2:04pm 4ft 8s 4 7 mph 1011mb 53f 56f
1:04pm 4.5ft 8s 7
mph
1011.7mb 53f 55f
12:04pm 5ft 8s 9 11 mph 1012.2mb 53f 55f
11:04am 5ft 8s 13
mph
1012.3mb 53f 55f
10:04am 4ft 8s 13 16 mph 1012.6mb 53f 55f
9:04am 4.5ft 8s 11 13 mph 1013.7mb 53f 56f
8:04am 4ft 8s 13
mph
1014.2mb 53f 56f
7:04am 3.5ft 8s 9 11 mph 1014.6mb 53f 55f
6:04am 4.5ft 8s 7 9 mph 1014.3mb 53f 54f
5:04am 4.5ft 8s 9
mph
1014.5mb 54f 54f
4:04am 3.5ft 8s 7
mph
1015.3mb 54f 53f
3:04am 5ft 8s 4
mph
1015.6mb 54f 53f
2:04am 4ft 8s 4
mph
1015.8mb 54f 53f
1:04am 6ft 8s 2 4 mph 1016.2mb 54f 53f
12:04am 5ft 8s 4 7 mph 1016.8mb 54f 53f
Tue 06/30 11:04pm 4.5ft 8s 9 11 mph 1017.3mb 54f 54f
10:04pm 4.5ft 8s 9 11 mph 1017.1mb 54f 55f
9:04pm 5ft 8s 4
mph
1016.1mb 54f 56f
7:04pm 5.5ft 8s  -  mph - 54f -
6:04pm 5ft 8s 4
mph
1015.9mb 53f 58f
5:04pm 4.5ft 8s 4 7 mph 1016.2mb 54f 56f
4:04pm 5ft 8s 4 7 mph 1016.5mb 54f 55f
3:04pm 6ft 11s 7
mph
1016.6mb 53f 55f
2:04pm 5ft 11s 9 11 mph 1016.7mb 53f 55f
1:04pm 6ft 8s 9 11 mph 1016.7mb 53f 55f
12:04pm 6ft 11s 9 11 mph 1016.8mb 52f 54f
10:04am 6.5ft 11s 11
mph
1016.7mb 52f 53f
9:04am 8ft 8s  -  mph - 52f -
8:04am 10ft 11s  -  mph - 51f -
7:04am 8.5ft 8s  -  mph - 50f -
5:04am 9ft 11s 7 9 mph 1015.4mb 51f 52f
4:04am 7ft 11s 11
mph
1015.1mb 50f 53f
3:04am 8ft 11s 9 11 mph 1014.8mb 49f 51f
2:04am 8ft 11s 9 11 mph 1014.8mb 49f 52f
1:04am 8ft 8s 9 11 mph 1014.5mb 49f 52f
12:04am 8ft 11s 11 13 mph 1014mb 50f 53f
Mon 06/29 11:04pm 8ft 11s 9 11 mph 1013.9mb 50f 52f
10:04pm 7ft 8s 11
mph
1013.7mb 51f 53f
9:04pm 7ft 11s 11 13 mph 1013.1mb 50f 53f
8:04pm 9ft 11s 11 13 mph 1012.7mb 52f 54f
7:04pm 9ft 11s 9 11 mph 1012.2mb 52f 54f
6:04pm 8ft 11s 9 11 mph 1012.1mb 52f 54f
5:04pm 9.5ft 11s 7 9 mph 1012.1mb 52f 53f
4:04pm 9ft 8s 7
mph
1012.3mb 52f 52f
3:04pm 11.5ft 11s 9 11 mph 1012.3mb 51f 52f
2:04pm 9.5ft 11s 11 13 mph 1012.1mb 51f 51f
1:04pm  -   -  11 13 mph 1011.9mb - 51f
12:04pm 11ft 11s 9 13 mph 1011.4mb 50f 51f
11:04am 12ft 11s 9 11 mph 1010.7mb 50f 51f
10:04am 12.5ft 8s 11 13 mph 1010.7mb 50f 52f
9:04am 12.5ft 11s 13 18 mph 1010mb 50f 52f